sensor_id;sensor_type;location;lat;lon;timestamp;P1;durP1;ratioP1;P2;durP2;ratioP2
13147;SDS011;6639;50.956;4.242;2022-12-04T00:00:18;48.30;;;26.07;;
13147;SDS011;6639;50.956;4.242;2022-12-04T00:02:45;40.63;;;26.50;;
13147;SDS011;6639;50.956;4.242;2022-12-04T00:05:12;42.90;;;26.03;;
13147;SDS011;6639;50.956;4.242;2022-12-04T00:07:39;44.57;;;27.13;;
13147;SDS011;6639;50.956;4.242;2022-12-04T00:10:06;45.07;;;25.93;;
13147;SDS011;6639;50.956;4.242;2022-12-04T00:12:35;44.33;;;27.43;;
13147;SDS011;6639;50.956;4.242;2022-12-04T00:15:02;38.87;;;24.87;;
13147;SDS011;6639;50.956;4.242;2022-12-04T00:17:29;41.93;;;25.07;;
13147;SDS011;6639;50.956;4.242;2022-12-04T00:19:56;42.00;;;25.77;;
13147;SDS011;6639;50.956;4.242;2022-12-04T00:22:23;41.70;;;25.00;;
13147;SDS011;6639;50.956;4.242;2022-12-04T00:24:50;41.83;;;25.77;;
13147;SDS011;6639;50.956;4.242;2022-12-04T00:27:16;42.10;;;25.83;;
13147;SDS011;6639;50.956;4.242;2022-12-04T00:29:45;46.47;;;27.60;;
13147;SDS011;6639;50.956;4.242;2022-12-04T00:32:12;39.37;;;24.97;;
13147;SDS011;6639;50.956;4.242;2022-12-04T00:34:39;41.03;;;26.00;;
13147;SDS011;6639;50.956;4.242;2022-12-04T00:37:05;42.77;;;26.67;;
13147;SDS011;6639;50.956;4.242;2022-12-04T00:39:32;43.63;;;26.27;;
13147;SDS011;6639;50.956;4.242;2022-12-04T00:41:59;40.40;;;25.73;;
13147;SDS011;6639;50.956;4.242;2022-12-04T00:44:26;47.60;;;27.27;;
13147;SDS011;6639;50.956;4.242;2022-12-04T00:46:54;39.00;;;26.30;;
13147;SDS011;6639;50.956;4.242;2022-12-04T00:49:21;38.40;;;26.07;;
13147;SDS011;6639;50.956;4.242;2022-12-04T00:51:48;39.03;;;24.97;;
13147;SDS011;6639;50.956;4.242;2022-12-04T00:54:14;42.00;;;27.10;;
13147;SDS011;6639;50.956;4.242;2022-12-04T00:56:41;38.80;;;25.20;;
13147;SDS011;6639;50.956;4.242;2022-12-04T00:59:09;39.93;;;26.63;;
13147;SDS011;6639;50.956;4.242;2022-12-04T01:01:37;44.37;;;28.27;;
13147;SDS011;6639;50.956;4.242;2022-12-04T01:04:06;39.10;;;26.73;;
13147;SDS011;6639;50.956;4.242;2022-12-04T01:06:33;40.13;;;25.73;;
13147;SDS011;6639;50.956;4.242;2022-12-04T01:09:02;39.07;;;25.20;;
13147;SDS011;6639;50.956;4.242;2022-12-04T01:11:30;37.10;;;24.90;;
13147;SDS011;6639;50.956;4.242;2022-12-04T01:13:57;39.30;;;24.47;;
13147;SDS011;6639;50.956;4.242;2022-12-04T01:16:26;38.53;;;25.30;;
13147;SDS011;6639;50.956;4.242;2022-12-04T01:18:54;37.57;;;24.53;;
13147;SDS011;6639;50.956;4.242;2022-12-04T01:21:22;44.00;;;26.77;;
13147;SDS011;6639;50.956;4.242;2022-12-04T01:23:49;43.63;;;27.67;;
13147;SDS011;6639;50.956;4.242;2022-12-04T01:26:16;44.83;;;27.40;;
13147;SDS011;6639;50.956;4.242;2022-12-04T01:28:44;43.73;;;26.53;;
13147;SDS011;6639;50.956;4.242;2022-12-04T01:31:12;42.13;;;25.77;;
13147;SDS011;6639;50.956;4.242;2022-12-04T01:33:40;45.50;;;27.33;;
13147;SDS011;6639;50.956;4.242;2022-12-04T01:36:09;40.63;;;26.13;;
13147;SDS011;6639;50.956;4.242;2022-12-04T01:38:39;41.53;;;26.33;;
13147;SDS011;6639;50.956;4.242;2022-12-04T01:41:07;41.57;;;25.97;;
13147;SDS011;6639;50.956;4.242;2022-12-04T01:43:36;38.67;;;25.40;;
13147;SDS011;6639;50.956;4.242;2022-12-04T01:46:04;39.50;;;26.33;;
13147;SDS011;6639;50.956;4.242;2022-12-04T01:48:32;42.63;;;26.03;;
13147;SDS011;6639;50.956;4.242;2022-12-04T01:51:02;39.40;;;25.47;;
13147;SDS011;6639;50.956;4.242;2022-12-04T01:53:33;43.03;;;25.87;;
13147;SDS011;6639;50.956;4.242;2022-12-04T01:56:05;40.07;;;26.10;;
13147;SDS011;6639;50.956;4.242;2022-12-04T01:58:35;41.20;;;24.87;;
13147;SDS011;6639;50.956;4.242;2022-12-04T02:01:06;42.57;;;27.00;;
13147;SDS011;6639;50.956;4.242;2022-12-04T02:03:33;43.13;;;26.73;;
13147;SDS011;6639;50.956;4.242;2022-12-04T02:06:01;39.73;;;25.90;;
13147;SDS011;6639;50.956;4.242;2022-12-04T02:08:29;44.90;;;26.97;;
13147;SDS011;6639;50.956;4.242;2022-12-04T02:10:59;42.73;;;26.63;;
13147;SDS011;6639;50.956;4.242;2022-12-04T02:13:35;47.13;;;27.40;;
13147;SDS011;6639;50.956;4.242;2022-12-04T02:16:13;43.50;;;26.20;;
13147;SDS011;6639;50.956;4.242;2022-12-04T02:18:50;42.13;;;27.10;;
13147;SDS011;6639;50.956;4.242;2022-12-04T02:21:25;43.27;;;26.47;;
13147;SDS011;6639;50.956;4.242;2022-12-04T02:26:49;42.90;;;25.73;;
13147;SDS011;6639;50.956;4.242;2022-12-04T02:29:24;41.60;;;25.80;;
13147;SDS011;6639;50.956;4.242;2022-12-04T02:32:02;42.60;;;26.17;;
13147;SDS011;6639;50.956;4.242;2022-12-04T02:34:39;39.03;;;26.00;;
13147;SDS011;6639;50.956;4.242;2022-12-04T02:37:12;44.33;;;25.43;;
13147;SDS011;6639;50.956;4.242;2022-12-04T02:39:43;41.87;;;27.10;;
13147;SDS011;6639;50.956;4.242;2022-12-04T02:42:17;42.57;;;26.87;;
13147;SDS011;6639;50.956;4.242;2022-12-04T02:44:54;43.73;;;28.07;;
13147;SDS011;6639;50.956;4.242;2022-12-04T02:47:25;59.60;;;27.53;;
13147;SDS011;6639;50.956;4.242;2022-12-04T02:49:53;44.83;;;27.93;;
13147;SDS011;6639;50.956;4.242;2022-12-04T02:52:26;47.07;;;27.77;;
13147;SDS011;6639;50.956;4.242;2022-12-04T02:54:57;48.37;;;29.00;;
13147;SDS011;6639;50.956;4.242;2022-12-04T02:57:28;46.63;;;27.53;;
13147;SDS011;6639;50.956;4.242;2022-12-04T03:00:01;47.53;;;29.00;;
13147;SDS011;6639;50.956;4.242;2022-12-04T03:02:34;46.77;;;28.90;;
13147;SDS011;6639;50.956;4.242;2022-12-04T03:05:05;46.43;;;27.97;;
13147;SDS011;6639;50.956;4.242;2022-12-04T03:07:37;48.93;;;28.60;;
13147;SDS011;6639;50.956;4.242;2022-12-04T03:10:10;52.37;;;29.20;;
13147;SDS011;6639;50.956;4.242;2022-12-04T03:12:41;49.63;;;28.00;;
13147;SDS011;6639;50.956;4.242;2022-12-04T03:15:15;50.03;;;30.00;;
13147;SDS011;6639;50.956;4.242;2022-12-04T03:17:46;50.10;;;30.90;;
13147;SDS011;6639;50.956;4.242;2022-12-04T03:20:17;45.23;;;27.83;;
13147;SDS011;6639;50.956;4.242;2022-12-04T03:22:48;50.83;;;29.00;;
13147;SDS011;6639;50.956;4.242;2022-12-04T03:25:21;56.30;;;29.57;;
13147;SDS011;6639;50.956;4.242;2022-12-04T03:27:53;48.57;;;28.80;;
13147;SDS011;6639;50.956;4.242;2022-12-04T03:30:27;49.13;;;29.40;;
13147;SDS011;6639;50.956;4.242;2022-12-04T03:33:02;48.77;;;29.30;;
13147;SDS011;6639;50.956;4.242;2022-12-04T03:35:36;51.47;;;27.97;;
13147;SDS011;6639;50.956;4.242;2022-12-04T03:38:07;51.30;;;28.13;;
13147;SDS011;6639;50.956;4.242;2022-12-04T03:40:42;48.20;;;28.73;;
13147;SDS011;6639;50.956;4.242;2022-12-04T03:43:18;50.90;;;28.17;;
13147;SDS011;6639;50.956;4.242;2022-12-04T03:45:51;55.70;;;30.17;;
13147;SDS011;6639;50.956;4.242;2022-12-04T03:48:23;50.43;;;29.00;;
13147;SDS011;6639;50.956;4.242;2022-12-04T03:50:55;47.43;;;27.97;;
13147;SDS011;6639;50.956;4.242;2022-12-04T03:53:28;51.00;;;28.93;;
13147;SDS011;6639;50.956;4.242;2022-12-04T03:56:00;48.80;;;29.10;;
13147;SDS011;6639;50.956;4.242;2022-12-04T03:58:32;47.00;;;28.70;;
13147;SDS011;6639;50.956;4.242;2022-12-04T04:01:03;48.10;;;27.73;;
13147;SDS011;6639;50.956;4.242;2022-12-04T04:03:34;48.23;;;27.93;;
13147;SDS011;6639;50.956;4.242;2022-12-04T04:06:05;44.30;;;28.33;;
13147;SDS011;6639;50.956;4.242;2022-12-04T04:08:37;48.40;;;28.67;;
13147;SDS011;6639;50.956;4.242;2022-12-04T04:11:08;47.77;;;28.43;;
13147;SDS011;6639;50.956;4.242;2022-12-04T04:13:39;46.77;;;27.80;;
13147;SDS011;6639;50.956;4.242;2022-12-04T04:16:29;46.53;;;26.73;;
13147;SDS011;6639;50.956;4.242;2022-12-04T04:19:16;48.80;;;27.80;;
13147;SDS011;6639;50.956;4.242;2022-12-04T04:22:03;43.60;;;25.90;;
13147;SDS011;6639;50.956;4.242;2022-12-04T04:24:52;46.63;;;26.07;;
13147;SDS011;6639;50.956;4.242;2022-12-04T04:27:23;49.57;;;27.00;;
13147;SDS011;6639;50.956;4.242;2022-12-04T04:29:50;42.53;;;27.07;;
13147;SDS011;6639;50.956;4.242;2022-12-04T04:32:20;44.10;;;26.73;;
13147;SDS011;6639;50.956;4.242;2022-12-04T04:34:55;47.37;;;26.37;;
13147;SDS011;6639;50.956;4.242;2022-12-04T04:37:31;50.57;;;28.67;;
13147;SDS011;6639;50.956;4.242;2022-12-04T04:40:07;46.17;;;26.17;;
13147;SDS011;6639;50.956;4.242;2022-12-04T04:42:40;48.40;;;27.80;;
13147;SDS011;6639;50.956;4.242;2022-12-04T04:45:14;50.07;;;29.20;;
13147;SDS011;6639;50.956;4.242;2022-12-04T04:47:47;45.60;;;28.17;;
13147;SDS011;6639;50.956;4.242;2022-12-04T04:50:18;43.73;;;27.47;;
13147;SDS011;6639;50.956;4.242;2022-12-04T04:52:47;47.33;;;27.50;;
13147;SDS011;6639;50.956;4.242;2022-12-04T04:55:18;50.67;;;29.10;;
13147;SDS011;6639;50.956;4.242;2022-12-04T04:57:46;44.10;;;27.77;;
13147;SDS011;6639;50.956;4.242;2022-12-04T05:00:14;46.17;;;27.77;;
13147;SDS011;6639;50.956;4.242;2022-12-04T05:02:42;47.73;;;27.80;;
13147;SDS011;6639;50.956;4.242;2022-12-04T05:05:10;46.00;;;27.07;;
13147;SDS011;6639;50.956;4.242;2022-12-04T05:07:38;42.30;;;27.17;;
13147;SDS011;6639;50.956;4.242;2022-12-04T05:10:05;42.90;;;26.87;;
13147;SDS011;6639;50.956;4.242;2022-12-04T05:12:33;48.33;;;28.97;;
13147;SDS011;6639;50.956;4.242;2022-12-04T05:15:00;46.33;;;27.70;;
13147;SDS011;6639;50.956;4.242;2022-12-04T05:17:27;45.77;;;26.07;;
13147;SDS011;6639;50.956;4.242;2022-12-04T05:19:54;46.73;;;27.67;;
13147;SDS011;6639;50.956;4.242;2022-12-04T05:22:22;47.10;;;27.37;;
13147;SDS011;6639;50.956;4.242;2022-12-04T05:24:51;48.57;;;27.67;;
13147;SDS011;6639;50.956;4.242;2022-12-04T05:27:18;42.03;;;27.60;;
13147;SDS011;6639;50.956;4.242;2022-12-04T05:29:45;46.63;;;28.50;;
13147;SDS011;6639;50.956;4.242;2022-12-04T05:32:12;47.57;;;29.63;;
13147;SDS011;6639;50.956;4.242;2022-12-04T05:34:39;43.90;;;26.20;;
13147;SDS011;6639;50.956;4.242;2022-12-04T05:37:06;45.47;;;26.10;;
13147;SDS011;6639;50.956;4.242;2022-12-04T05:39:34;42.30;;;26.13;;
13147;SDS011;6639;50.956;4.242;2022-12-04T05:42:01;39.80;;;27.63;;
13147;SDS011;6639;50.956;4.242;2022-12-04T05:44:28;46.40;;;28.07;;
13147;SDS011;6639;50.956;4.242;2022-12-04T05:46:55;41.77;;;27.10;;
13147;SDS011;6639;50.956;4.242;2022-12-04T05:49:22;47.27;;;28.03;;
13147;SDS011;6639;50.956;4.242;2022-12-04T05:51:49;44.47;;;26.20;;
13147;SDS011;6639;50.956;4.242;2022-12-04T05:54:17;44.80;;;27.07;;
13147;SDS011;6639;50.956;4.242;2022-12-04T05:56:45;45.13;;;27.03;;
13147;SDS011;6639;50.956;4.242;2022-12-04T05:59:13;47.07;;;27.40;;
13147;SDS011;6639;50.956;4.242;2022-12-04T06:01:40;41.70;;;27.40;;
13147;SDS011;6639;50.956;4.242;2022-12-04T06:04:08;42.87;;;27.43;;
13147;SDS011;6639;50.956;4.242;2022-12-04T06:06:35;42.60;;;26.33;;
13147;SDS011;6639;50.956;4.242;2022-12-04T06:09:03;41.73;;;26.13;;
13147;SDS011;6639;50.956;4.242;2022-12-04T06:11:32;43.97;;;27.07;;
13147;SDS011;6639;50.956;4.242;2022-12-04T06:14:02;42.73;;;25.80;;
13147;SDS011;6639;50.956;4.242;2022-12-04T06:16:31;43.40;;;26.90;;
13147;SDS011;6639;50.956;4.242;2022-12-04T06:19:00;43.40;;;27.20;;
13147;SDS011;6639;50.956;4.242;2022-12-04T06:21:30;46.03;;;26.07;;
13147;SDS011;6639;50.956;4.242;2022-12-04T06:23:58;41.63;;;26.20;;
13147;SDS011;6639;50.956;4.242;2022-12-04T06:26:25;42.70;;;28.00;;
13147;SDS011;6639;50.956;4.242;2022-12-04T06:28:53;46.83;;;27.97;;
13147;SDS011;6639;50.956;4.242;2022-12-04T06:31:22;46.93;;;26.23;;
13147;SDS011;6639;50.956;4.242;2022-12-04T06:33:51;45.77;;;28.37;;
13147;SDS011;6639;50.956;4.242;2022-12-04T06:36:20;41.90;;;27.63;;
13147;SDS011;6639;50.956;4.242;2022-12-04T06:38:47;45.03;;;26.90;;
13147;SDS011;6639;50.956;4.242;2022-12-04T06:41:16;42.43;;;27.80;;
13147;SDS011;6639;50.956;4.242;2022-12-04T06:43:44;42.40;;;25.90;;
13147;SDS011;6639;50.956;4.242;2022-12-04T06:46:13;41.70;;;27.23;;
13147;SDS011;6639;50.956;4.242;2022-12-04T06:48:42;45.77;;;27.20;;
13147;SDS011;6639;50.956;4.242;2022-12-04T06:51:10;48.27;;;28.77;;
13147;SDS011;6639;50.956;4.242;2022-12-04T06:53:38;42.00;;;26.47;;
13147;SDS011;6639;50.956;4.242;2022-12-04T06:56:07;45.00;;;27.93;;
13147;SDS011;6639;50.956;4.242;2022-12-04T06:58:36;44.43;;;25.90;;
13147;SDS011;6639;50.956;4.242;2022-12-04T07:01:05;46.00;;;27.33;;
13147;SDS011;6639;50.956;4.242;2022-12-04T07:03:32;45.13;;;28.77;;
13147;SDS011;6639;50.956;4.242;2022-12-04T07:06:09;42.63;;;25.87;;
13147;SDS011;6639;50.956;4.242;2022-12-04T07:08:40;43.57;;;26.17;;
13147;SDS011;6639;50.956;4.242;2022-12-04T07:11:08;42.27;;;27.13;;
13147;SDS011;6639;50.956;4.242;2022-12-04T07:13:35;45.97;;;26.90;;
13147;SDS011;6639;50.956;4.242;2022-12-04T07:16:02;41.43;;;28.23;;
13147;SDS011;6639;50.956;4.242;2022-12-04T07:18:31;42.87;;;26.07;;
13147;SDS011;6639;50.956;4.242;2022-12-04T07:20:59;43.87;;;26.87;;
13147;SDS011;6639;50.956;4.242;2022-12-04T07:23:31;45.37;;;26.90;;
13147;SDS011;6639;50.956;4.242;2022-12-04T07:25:58;44.63;;;26.87;;
13147;SDS011;6639;50.956;4.242;2022-12-04T07:28:29;45.80;;;28.23;;
13147;SDS011;6639;50.956;4.242;2022-12-04T07:30:56;43.73;;;29.70;;
13147;SDS011;6639;50.956;4.242;2022-12-04T07:33:23;45.20;;;27.83;;
13147;SDS011;6639;50.956;4.242;2022-12-04T07:35:53;44.00;;;28.47;;
13147;SDS011;6639;50.956;4.242;2022-12-04T07:38:20;45.80;;;29.53;;
13147;SDS011;6639;50.956;4.242;2022-12-04T07:40:49;42.10;;;27.17;;
13147;SDS011;6639;50.956;4.242;2022-12-04T07:43:15;39.03;;;27.03;;
13147;SDS011;6639;50.956;4.242;2022-12-04T07:45:42;43.03;;;28.67;;
13147;SDS011;6639;50.956;4.242;2022-12-04T07:48:09;41.33;;;27.70;;
13147;SDS011;6639;50.956;4.242;2022-12-04T07:50:36;42.63;;;27.27;;
13147;SDS011;6639;50.956;4.242;2022-12-04T07:53:03;45.17;;;28.67;;
13147;SDS011;6639;50.956;4.242;2022-12-04T07:55:30;48.57;;;29.53;;
13147;SDS011;6639;50.956;4.242;2022-12-04T07:57:58;42.50;;;26.43;;
13147;SDS011;6639;50.956;4.242;2022-12-04T08:00:25;47.23;;;29.20;;
13147;SDS011;6639;50.956;4.242;2022-12-04T08:02:52;46.63;;;28.80;;
13147;SDS011;6639;50.956;4.242;2022-12-04T08:05:18;48.83;;;28.10;;
13147;SDS011;6639;50.956;4.242;2022-12-04T08:07:45;43.97;;;27.43;;
13147;SDS011;6639;50.956;4.242;2022-12-04T08:10:13;44.40;;;28.83;;
13147;SDS011;6639;50.956;4.242;2022-12-04T08:12:40;43.33;;;28.40;;
13147;SDS011;6639;50.956;4.242;2022-12-04T08:15:11;39.67;;;27.37;;
13147;SDS011;6639;50.956;4.242;2022-12-04T08:17:38;45.80;;;29.87;;
13147;SDS011;6639;50.956;4.242;2022-12-04T08:20:05;43.63;;;28.17;;
13147;SDS011;6639;50.956;4.242;2022-12-04T08:22:32;45.70;;;28.97;;
13147;SDS011;6639;50.956;4.242;2022-12-04T08:24:59;43.83;;;30.27;;
13147;SDS011;6639;50.956;4.242;2022-12-04T08:27:26;46.67;;;28.33;;
13147;SDS011;6639;50.956;4.242;2022-12-04T08:29:54;47.27;;;28.97;;
13147;SDS011;6639;50.956;4.242;2022-12-04T08:32:23;45.57;;;28.50;;
13147;SDS011;6639;50.956;4.242;2022-12-04T08:34:50;45.10;;;28.90;;
13147;SDS011;6639;50.956;4.242;2022-12-04T08:37:17;47.43;;;29.80;;
13147;SDS011;6639;50.956;4.242;2022-12-04T08:39:44;43.90;;;28.63;;
13147;SDS011;6639;50.956;4.242;2022-12-04T08:42:11;47.60;;;30.00;;
13147;SDS011;6639;50.956;4.242;2022-12-04T08:44:38;42.77;;;28.03;;
13147;SDS011;6639;50.956;4.242;2022-12-04T08:47:05;45.27;;;29.93;;
13147;SDS011;6639;50.956;4.242;2022-12-04T08:49:33;47.20;;;30.77;;
13147;SDS011;6639;50.956;4.242;2022-12-04T08:52:00;43.60;;;30.10;;
13147;SDS011;6639;50.956;4.242;2022-12-04T08:54:27;47.23;;;31.60;;
13147;SDS011;6639;50.956;4.242;2022-12-04T08:56:54;45.63;;;28.97;;
13147;SDS011;6639;50.956;4.242;2022-12-04T08:59:20;45.30;;;29.40;;
13147;SDS011;6639;50.956;4.242;2022-12-04T09:01:48;54.00;;;32.47;;
13147;SDS011;6639;50.956;4.242;2022-12-04T09:04:15;43.93;;;29.87;;
13147;SDS011;6639;50.956;4.242;2022-12-04T09:06:44;43.37;;;29.67;;
13147;SDS011;6639;50.956;4.242;2022-12-04T09:09:10;47.43;;;29.83;;
13147;SDS011;6639;50.956;4.242;2022-12-04T09:11:37;43.60;;;28.10;;
13147;SDS011;6639;50.956;4.242;2022-12-04T09:14:05;47.00;;;31.23;;
13147;SDS011;6639;50.956;4.242;2022-12-04T09:16:32;51.80;;;30.13;;
13147;SDS011;6639;50.956;4.242;2022-12-04T09:18:59;46.60;;;29.53;;
13147;SDS011;6639;50.956;4.242;2022-12-04T09:21:26;43.40;;;29.60;;
13147;SDS011;6639;50.956;4.242;2022-12-04T09:23:54;44.37;;;29.83;;
13147;SDS011;6639;50.956;4.242;2022-12-04T09:26:22;50.20;;;30.50;;
13147;SDS011;6639;50.956;4.242;2022-12-04T09:28:51;45.17;;;29.47;;
13147;SDS011;6639;50.956;4.242;2022-12-04T09:31:19;52.20;;;32.17;;
13147;SDS011;6639;50.956;4.242;2022-12-04T09:33:47;48.10;;;31.00;;
13147;SDS011;6639;50.956;4.242;2022-12-04T09:36:14;48.90;;;30.77;;
13147;SDS011;6639;50.956;4.242;2022-12-04T09:38:42;48.50;;;32.57;;
13147;SDS011;6639;50.956;4.242;2022-12-04T09:41:16;50.67;;;33.17;;
13147;SDS011;6639;50.956;4.242;2022-12-04T09:43:54;49.87;;;31.70;;
13147;SDS011;6639;50.956;4.242;2022-12-04T09:46:25;46.90;;;31.43;;
13147;SDS011;6639;50.956;4.242;2022-12-04T09:48:56;48.73;;;32.83;;
13147;SDS011;6639;50.956;4.242;2022-12-04T09:51:27;46.33;;;30.93;;
13147;SDS011;6639;50.956;4.242;2022-12-04T09:53:56;50.40;;;33.47;;
13147;SDS011;6639;50.956;4.242;2022-12-04T09:56:29;49.73;;;32.27;;
13147;SDS011;6639;50.956;4.242;2022-12-04T09:58:58;47.77;;;30.23;;
13147;SDS011;6639;50.956;4.242;2022-12-04T10:01:32;43.53;;;29.40;;
13147;SDS011;6639;50.956;4.242;2022-12-04T10:04:10;44.40;;;28.37;;
13147;SDS011;6639;50.956;4.242;2022-12-04T10:06:39;42.50;;;29.87;;
13147;SDS011;6639;50.956;4.242;2022-12-04T10:09:11;43.47;;;29.03;;
13147;SDS011;6639;50.956;4.242;2022-12-04T10:11:45;41.37;;;27.83;;
13147;SDS011;6639;50.956;4.242;2022-12-04T10:14:29;43.60;;;29.23;;
13147;SDS011;6639;50.956;4.242;2022-12-04T10:17:21;39.37;;;27.27;;
13147;SDS011;6639;50.956;4.242;2022-12-04T10:20:03;40.23;;;25.90;;
13147;SDS011;6639;50.956;4.242;2022-12-04T10:22:42;41.77;;;26.50;;
13147;SDS011;6639;50.956;4.242;2022-12-04T10:25:19;39.67;;;25.70;;
13147;SDS011;6639;50.956;4.242;2022-12-04T10:27:50;35.20;;;24.73;;
13147;SDS011;6639;50.956;4.242;2022-12-04T10:30:22;33.37;;;24.20;;
13147;SDS011;6639;50.956;4.242;2022-12-04T10:32:52;34.40;;;23.17;;
13147;SDS011;6639;50.956;4.242;2022-12-04T10:35:23;31.97;;;21.83;;
13147;SDS011;6639;50.956;4.242;2022-12-04T10:37:56;31.63;;;21.73;;
13147;SDS011;6639;50.956;4.242;2022-12-04T10:40:25;30.37;;;21.33;;
13147;SDS011;6639;50.956;4.242;2022-12-04T10:42:59;33.83;;;22.20;;
13147;SDS011;6639;50.956;4.242;2022-12-04T10:45:31;31.00;;;20.93;;
13147;SDS011;6639;50.956;4.242;2022-12-04T10:47:58;32.43;;;22.37;;
13147;SDS011;6639;50.956;4.242;2022-12-04T10:50:25;29.77;;;19.77;;
13147;SDS011;6639;50.956;4.242;2022-12-04T10:52:52;28.90;;;20.37;;
13147;SDS011;6639;50.956;4.242;2022-12-04T10:55:28;32.30;;;23.17;;
13147;SDS011;6639;50.956;4.242;2022-12-04T10:57:58;28.87;;;18.97;;
13147;SDS011;6639;50.956;4.242;2022-12-04T11:00:27;29.53;;;20.07;;
13147;SDS011;6639;50.956;4.242;2022-12-04T11:02:56;29.87;;;20.90;;
13147;SDS011;6639;50.956;4.242;2022-12-04T11:05:27;31.23;;;21.87;;
13147;SDS011;6639;50.956;4.242;2022-12-04T11:07:57;27.73;;;20.70;;
13147;SDS011;6639;50.956;4.242;2022-12-04T11:10:27;29.40;;;20.03;;
13147;SDS011;6639;50.956;4.242;2022-12-04T11:13:00;28.60;;;20.20;;
13147;SDS011;6639;50.956;4.242;2022-12-04T11:15:29;28.33;;;20.50;;
13147;SDS011;6639;50.956;4.242;2022-12-04T11:18:05;29.80;;;21.20;;
13147;SDS011;6639;50.956;4.242;2022-12-04T11:20:33;28.10;;;18.83;;
13147;SDS011;6639;50.956;4.242;2022-12-04T11:23:01;26.70;;;20.13;;
13147;SDS011;6639;50.956;4.242;2022-12-04T11:25:29;28.30;;;20.00;;
13147;SDS011;6639;50.956;4.242;2022-12-04T11:28:03;32.37;;;21.67;;
13147;SDS011;6639;50.956;4.242;2022-12-04T11:30:31;35.00;;;22.77;;
13147;SDS011;6639;50.956;4.242;2022-12-04T11:33:01;33.53;;;22.40;;
13147;SDS011;6639;50.956;4.242;2022-12-04T11:35:31;29.30;;;21.50;;
13147;SDS011;6639;50.956;4.242;2022-12-04T11:38:00;33.63;;;22.47;;
13147;SDS011;6639;50.956;4.242;2022-12-04T11:40:31;32.90;;;21.97;;
13147;SDS011;6639;50.956;4.242;2022-12-04T11:43:01;30.70;;;22.77;;
13147;SDS011;6639;50.956;4.242;2022-12-04T11:45:31;35.93;;;23.07;;
13147;SDS011;6639;50.956;4.242;2022-12-04T11:47:59;32.40;;;23.17;;
13147;SDS011;6639;50.956;4.242;2022-12-04T11:50:29;31.97;;;22.90;;
13147;SDS011;6639;50.956;4.242;2022-12-04T11:53:05;33.33;;;23.20;;
13147;SDS011;6639;50.956;4.242;2022-12-04T11:55:42;33.80;;;23.57;;
13147;SDS011;6639;50.956;4.242;2022-12-04T11:58:23;35.07;;;23.27;;
13147;SDS011;6639;50.956;4.242;2022-12-04T12:01:11;34.13;;;23.90;;
13147;SDS011;6639;50.956;4.242;2022-12-04T12:03:49;36.30;;;25.13;;
13147;SDS011;6639;50.956;4.242;2022-12-04T12:06:33;34.57;;;22.50;;
13147;SDS011;6639;50.956;4.242;2022-12-04T12:09:07;29.17;;;21.63;;
13147;SDS011;6639;50.956;4.242;2022-12-04T12:11:46;30.27;;;22.50;;
13147;SDS011;6639;50.956;4.242;2022-12-04T12:14:21;28.23;;;21.23;;
13147;SDS011;6639;50.956;4.242;2022-12-04T12:16:55;31.30;;;20.70;;
13147;SDS011;6639;50.956;4.242;2022-12-04T12:19:42;26.93;;;19.13;;
13147;SDS011;6639;50.956;4.242;2022-12-04T12:25:42;24.13;;;17.77;;
13147;SDS011;6639;50.956;4.242;2022-12-04T12:28:19;23.00;;;18.13;;
13147;SDS011;6639;50.956;4.242;2022-12-04T12:31:06;25.63;;;19.03;;
13147;SDS011;6639;50.956;4.242;2022-12-04T12:33:45;22.40;;;16.70;;
13147;SDS011;6639;50.956;4.242;2022-12-04T12:36:17;23.10;;;16.83;;
13147;SDS011;6639;50.956;4.242;2022-12-04T12:38:48;21.63;;;17.00;;
13147;SDS011;6639;50.956;4.242;2022-12-04T12:41:20;21.97;;;16.87;;
13147;SDS011;6639;50.956;4.242;2022-12-04T12:43:53;20.83;;;16.20;;
13147;SDS011;6639;50.956;4.242;2022-12-04T12:46:29;19.77;;;15.67;;
13147;SDS011;6639;50.956;4.242;2022-12-04T12:49:00;22.03;;;16.27;;
13147;SDS011;6639;50.956;4.242;2022-12-04T12:51:32;22.83;;;16.03;;
13147;SDS011;6639;50.956;4.242;2022-12-04T12:54:08;20.93;;;15.57;;
13147;SDS011;6639;50.956;4.242;2022-12-04T12:56:40;18.70;;;14.97;;
13147;SDS011;6639;50.956;4.242;2022-12-04T12:59:14;21.30;;;16.90;;
13147;SDS011;6639;50.956;4.242;2022-12-04T13:01:46;24.63;;;18.23;;
13147;SDS011;6639;50.956;4.242;2022-12-04T13:04:19;24.17;;;19.73;;
13147;SDS011;6639;50.956;4.242;2022-12-04T13:07:07;23.93;;;18.97;;
13147;SDS011;6639;50.956;4.242;2022-12-04T13:09:47;24.27;;;19.90;;
13147;SDS011;6639;50.956;4.242;2022-12-04T13:12:17;25.97;;;19.87;;
13147;SDS011;6639;50.956;4.242;2022-12-04T13:14:45;25.77;;;21.27;;
13147;SDS011;6639;50.956;4.242;2022-12-04T13:17:14;26.37;;;20.17;;
13147;SDS011;6639;50.956;4.242;2022-12-04T13:19:47;27.00;;;20.40;;
13147;SDS011;6639;50.956;4.242;2022-12-04T13:22:20;26.03;;;20.90;;
13147;SDS011;6639;50.956;4.242;2022-12-04T13:24:58;29.60;;;22.70;;
13147;SDS011;6639;50.956;4.242;2022-12-04T13:27:44;29.87;;;23.60;;
13147;SDS011;6639;50.956;4.242;2022-12-04T13:30:18;34.03;;;24.57;;
13147;SDS011;6639;50.956;4.242;2022-12-04T13:35:46;35.63;;;26.90;;
13147;SDS011;6639;50.956;4.242;2022-12-04T13:38:28;31.70;;;25.60;;
13147;SDS011;6639;50.956;4.242;2022-12-04T13:41:03;33.60;;;25.70;;
13147;SDS011;6639;50.956;4.242;2022-12-04T13:43:35;36.37;;;27.73;;
13147;SDS011;6639;50.956;4.242;2022-12-04T13:46:20;38.57;;;30.03;;
13147;SDS011;6639;50.956;4.242;2022-12-04T13:48:53;38.67;;;30.23;;
13147;SDS011;6639;50.956;4.242;2022-12-04T13:51:24;41.03;;;29.47;;
13147;SDS011;6639;50.956;4.242;2022-12-04T13:54:03;36.33;;;28.10;;
13147;SDS011;6639;50.956;4.242;2022-12-04T13:56:48;41.20;;;29.27;;
13147;SDS011;6639;50.956;4.242;2022-12-04T13:59:20;39.93;;;29.70;;
13147;SDS011;6639;50.956;4.242;2022-12-04T14:01:50;42.10;;;31.50;;
13147;SDS011;6639;50.956;4.242;2022-12-04T14:04:27;39.43;;;32.20;;
13147;SDS011;6639;50.956;4.242;2022-12-04T14:06:56;45.33;;;31.60;;
13147;SDS011;6639;50.956;4.242;2022-12-04T14:09:26;45.10;;;32.43;;
13147;SDS011;6639;50.956;4.242;2022-12-04T14:11:58;41.63;;;31.67;;
13147;SDS011;6639;50.956;4.242;2022-12-04T14:14:28;46.23;;;34.10;;
13147;SDS011;6639;50.956;4.242;2022-12-04T14:17:00;47.10;;;35.17;;
13147;SDS011;6639;50.956;4.242;2022-12-04T14:19:30;42.87;;;32.20;;
13147;SDS011;6639;50.956;4.242;2022-12-04T14:21:59;44.60;;;34.77;;
13147;SDS011;6639;50.956;4.242;2022-12-04T14:24:33;46.67;;;34.97;;
13147;SDS011;6639;50.956;4.242;2022-12-04T14:27:02;46.73;;;34.00;;
13147;SDS011;6639;50.956;4.242;2022-12-04T14:29:51;45.17;;;33.33;;
13147;SDS011;6639;50.956;4.242;2022-12-04T14:32:20;43.73;;;33.63;;
13147;SDS011;6639;50.956;4.242;2022-12-04T14:34:51;42.77;;;33.70;;
13147;SDS011;6639;50.956;4.242;2022-12-04T14:37:20;42.37;;;32.10;;
13147;SDS011;6639;50.956;4.242;2022-12-04T14:39:51;39.60;;;30.27;;
13147;SDS011;6639;50.956;4.242;2022-12-04T14:42:22;36.27;;;29.43;;
13147;SDS011;6639;50.956;4.242;2022-12-04T14:44:52;39.17;;;29.57;;
13147;SDS011;6639;50.956;4.242;2022-12-04T14:47:24;36.73;;;29.57;;
13147;SDS011;6639;50.956;4.242;2022-12-04T14:50:14;35.60;;;27.80;;
13147;SDS011;6639;50.956;4.242;2022-12-04T14:52:53;35.07;;;25.97;;
13147;SDS011;6639;50.956;4.242;2022-12-04T14:55:29;39.03;;;29.23;;
13147;SDS011;6639;50.956;4.242;2022-12-04T14:58:01;37.30;;;29.77;;
13147;SDS011;6639;50.956;4.242;2022-12-04T15:00:50;37.30;;;29.00;;
13147;SDS011;6639;50.956;4.242;2022-12-04T15:03:19;37.80;;;29.60;;